Time;durP1;ratioP1;P1;durP2;ratioP2;P2;SDS_P1;SDS_P2;PMS_P1;PMS_P2;Temp;Humidity;BMP_temperature;BMP_pressure;BME280_temperature;BME280_humidity;BME280_pressure;Samples;Min_cycle;Max_cycle;Signal;HPM_P1;HPM_P2
2021/10/20 00:01:40;;;;;;;30.52;19.27;;;;;;;2.23;65.42;101607.79;1738481;80;21124;-73
2021/10/20 00:04:06;;;;;;;34.33;21.20;;;;;;;2.16;65.41;101604.22;1718462;81;21158;-73
2021/10/20 00:06:33;;;;;;;32.00;20.25;;;;;;;2.11;65.38;101600.30;1744031;80;21578;-72
2021/10/20 00:08:59;;;;;;;32.70;20.85;;;;;;;2.06;65.51;101597.86;1713742;82;21102;-72
2021/10/20 00:11:26;;;;;;;30.35;19.00;;;;;;;2.03;65.54;101599.02;1704305;82;21173;-72
2021/10/20 00:13:52;;;;;;;32.55;19.95;;;;;;;2.07;65.48;101596.86;1742084;80;21120;-71
2021/10/20 00:16:19;;;;;;;31.00;19.20;;;;;;;2.07;65.46;101599.49;1758039;80;21019;-73
2021/10/20 00:18:50;;;;;;;27.85;18.60;;;;;;;2.03;65.54;101607.43;1733691;80;21542;-72
2021/10/20 00:21:16;;;;;;;28.90;17.20;;;;;;;2.01;65.59;101605.48;1714767;82;21027;-72
2021/10/20 00:23:42;;;;;;;24.37;16.40;;;;;;;1.96;65.65;101615.72;1741122;80;21249;-72
2021/10/20 00:26:09;;;;;;;25.80;16.42;;;;;;;1.83;65.78;101617.59;1742656;80;21152;-73
2021/10/20 00:28:35;;;;;;;28.02;15.93;;;;;;;1.82;65.97;101618.59;1742338;80;21595;-73
2021/10/20 00:31:03;;;;;;;26.70;16.35;;;;;;;1.92;65.92;101603.89;1739773;80;21059;-73
2021/10/20 00:33:30;;;;;;;21.60;14.55;;;;;;;1.88;65.95;101598.16;1742395;80;21494;-73
2021/10/20 00:35:56;;;;;;;24.60;15.38;;;;;;;1.83;66.02;101588.62;1738853;80;21102;-72
2021/10/20 00:38:23;;;;;;;25.27;16.57;;;;;;;1.80;66.09;101588.97;1702826;82;21142;-73
2021/10/20 00:40:53;;;;;;;24.55;15.40;;;;;;;1.77;66.19;101593.26;1742363;80;21075;-73
2021/10/20 00:43:22;;;;;;;20.08;14.83;;;;;;;1.64;66.33;101580.15;1732519;80;21424;-72
2021/10/20 00:45:49;;;;;;;20.80;14.30;;;;;;;1.54;66.43;101573.47;1729989;80;21115;-73
2021/10/20 00:48:16;;;;;;;23.32;13.62;;;;;;;1.52;66.48;101572.34;1740209;80;21094;-74
2021/10/20 00:50:42;;;;;;;25.80;14.63;;;;;;;1.49;66.52;101571.86;1741049;80;21160;-73
2021/10/20 00:53:10;;;;;;;20.15;14.05;;;;;;;1.39;66.63;101564.98;1736902;80;21039;-73
2021/10/20 00:55:39;;;;;;;23.32;15.20;;;;;;;1.33;66.82;101566.98;1732808;80;21039;-73
2021/10/20 00:58:06;;;;;;;23.83;15.78;;;;;;;1.27;67.08;101569.48;1738857;80;21070;-72
2021/10/20 01:00:33;;;;;;;27.42;16.12;;;;;;;1.22;67.23;101563.89;1674616;81;21102;-71
2021/10/20 01:03:00;;;;;;;27.07;16.62;;;;;;;1.18;67.43;101564.73;1700288;83;21802;-72
2021/10/20 01:05:27;;;;;;;27.80;15.95;;;;;;;1.15;67.59;101558.02;1742935;80;21056;-74
2021/10/20 01:07:54;;;;;;;25.48;16.07;;;;;;;1.12;67.90;101568.07;1732345;80;21026;-72
2021/10/20 01:10:21;;;;;;;25.57;15.43;;;;;;;1.11;68.16;101568.54;1735054;80;21584;-72
2021/10/20 01:12:48;;;;;;;25.08;17.00;;;;;;;1.12;68.35;101570.20;1737710;80;20932;-71
2021/10/20 01:15:21;;;;;;;24.57;16.32;;;;;;;1.24;68.38;101573.77;1728934;81;21149;-71
2021/10/20 01:17:48;;;;;;;26.50;16.45;;;;;;;1.32;68.39;101565.85;1724338;81;21090;-71
2021/10/20 01:20:17;;;;;;;28.38;16.60;;;;;;;1.37;68.39;101570.09;1723721;81;21086;-73
2021/10/20 01:22:45;;;;;;;27.10;15.50;;;;;;;1.40;68.28;101573.70;1729731;81;20952;-71
2021/10/20 01:25:12;;;;;;;27.13;16.82;;;;;;;1.43;68.20;101572.55;1728844;80;21660;-71
2021/10/20 01:27:40;;;;;;;26.07;16.62;;;;;;;1.42;68.21;101574.36;1739958;80;21982;-72
2021/10/20 01:30:07;;;;;;;26.75;15.53;;;;;;;1.46;68.10;101570.89;1741757;80;20984;-71
2021/10/20 01:32:35;;;;;;;27.55;17.37;;;;;;;1.43;68.06;101567.28;1739672;80;21050;-71
2021/10/20 01:35:02;;;;;;;27.82;16.87;;;;;;;1.38;68.13;101562.52;1737621;80;21030;-71
2021/10/20 01:37:30;;;;;;;28.38;16.32;;;;;;;1.45;68.13;101558.23;1705846;81;20945;-71
2021/10/20 01:39:57;;;;;;;26.97;16.62;;;;;;;1.48;68.14;101550.45;1740638;80;21357;-72
2021/10/20 01:42:26;;;;;;;27.45;17.02;;;;;;;1.54;67.99;101544.00;1712361;81;21133;-72
2021/10/20 01:44:54;;;;;;;26.00;16.85;;;;;;;1.56;68.00;101549.11;1744088;80;21027;-71
2021/10/20 01:47:20;;;;;;;26.48;16.00;;;;;;;1.56;68.03;101557.83;1736002;80;21530;-70
2021/10/20 01:49:48;;;;;;;22.98;14.63;;;;;;;1.52;67.98;101559.17;1737896;80;21054;-71
2021/10/20 01:52:14;;;;;;;26.05;15.88;;;;;;;1.45;67.92;101560.86;1739309;82;21986;-71
2021/10/20 01:54:41;;;;;;;25.97;14.75;;;;;;;1.34;68.04;101558.59;1741480;80;21062;-71
2021/10/20 01:57:08;;;;;;;26.17;15.63;;;;;;;1.27;68.13;101557.64;1729559;80;21051;-71
2021/10/20 01:59:34;;;;;;;24.60;15.03;;;;;;;1.19;68.26;101557.69;1734471;80;21731;-71
2021/10/20 02:02:03;;;;;;;26.33;17.30;;;;;;;1.20;68.28;101560.13;1732621;80;21553;-72
2021/10/20 02:04:30;;;;;;;28.02;17.25;;;;;;;1.21;68.35;101565.70;1724840;81;21083;-72
2021/10/20 02:06:58;;;;;;;24.60;15.90;;;;;;;1.26;68.35;101567.84;1742635;80;21083;-72
2021/10/20 02:09:25;;;;;;;26.37;16.48;;;;;;;1.30;68.33;101572.59;1744253;80;21475;-73
2021/10/20 02:11:51;;;;;;;23.40;16.25;;;;;;;1.35;68.24;101577.33;1696294;81;21161;-72
2021/10/20 02:14:18;;;;;;;26.33;15.78;;;;;;;1.38;68.17;101573.04;1732945;80;20967;-71
2021/10/20 02:16:45;;;;;;;23.85;15.72;;;;;;;1.33;68.04;101576.20;1711021;81;21254;-72
2021/10/20 02:19:12;;;;;;;29.85;16.77;;;;;;;1.29;68.04;101576.72;1746111;80;21605;-75
2021/10/20 02:21:41;;;;;;;25.08;15.85;;;;;;;1.30;68.00;101580.48;1735258;80;21123;-72
2021/10/20 02:24:08;;;;;;;27.95;17.87;;;;;;;1.32;67.94;101581.65;1707831;81;21064;-71
2021/10/20 02:26:35;;;;;;;27.07;16.75;;;;;;;1.35;67.88;101582.59;1736129;80;21573;-72
2021/10/20 02:29:02;;;;;;;26.50;16.70;;;;;;;1.35;67.87;101574.70;1744027;80;21199;-72
2021/10/20 02:31:30;;;;;;;26.33;15.98;;;;;;;1.34;67.88;101573.06;1747611;80;20988;-72
2021/10/20 02:33:56;;;;;;;27.73;17.30;;;;;;;1.34;67.84;101572.56;1753216;80;20996;-70
2021/10/20 02:36:23;;;;;;;29.07;16.93;;;;;;;1.34;67.81;101572.56;1736178;80;21105;-71
2021/10/20 02:38:50;;;;;;;26.55;16.67;;;;;;;1.41;67.69;101574.02;1732729;80;21024;-72
2021/10/20 02:41:17;;;;;;;24.47;16.02;;;;;;;1.43;67.61;101571.23;1743214;80;21147;-71
2021/10/20 02:43:44;;;;;;;25.02;15.38;;;;;;;1.39;67.62;101571.57;1738678;80;20952;-71
2021/10/20 02:46:11;;;;;;;26.95;16.17;;;;;;;1.41;67.54;101575.33;1713636;82;21494;-71
2021/10/20 02:48:38;;;;;;;26.12;16.32;;;;;;;1.41;67.54;101579.28;1745428;80;21594;-71
2021/10/20 02:51:04;;;;;;;25.37;15.75;;;;;;;1.42;67.60;101578.81;1742127;80;21030;-71
2021/10/20 02:53:31;;;;;;;26.68;15.58;;;;;;;1.46;67.62;101574.34;1707287;81;21163;-71
2021/10/20 02:55:58;;;;;;;22.35;14.58;;;;;;;1.45;67.63;101576.66;1739230;80;21054;-72
2021/10/20 02:58:26;;;;;;;24.35;13.95;;;;;;;1.48;67.49;101572.83;1704943;82;21114;-73
2021/10/20 03:00:53;;;;;;;21.55;12.93;;;;;;;1.39;67.52;101579.97;1722881;82;20976;-71
2021/10/20 03:03:20;;;;;;;20.68;12.73;;;;;;;1.30;67.58;101577.85;1708715;81;21023;-71
2021/10/20 03:05:48;;;;;;;24.07;14.13;;;;;;;1.24;67.69;101577.72;1724390;82;21163;-71
2021/10/20 03:08:16;;;;;;;23.27;14.70;;;;;;;1.15;67.81;101575.59;1712388;81;21573;-70
2021/10/20 03:10:44;;;;;;;24.37;14.30;;;;;;;1.07;67.99;101575.14;1712946;81;20964;-72
2021/10/20 03:13:10;;;;;;;25.52;14.47;;;;;;;1.02;68.29;101586.68;1721991;82;21047;-72
2021/10/20 03:15:37;;;;;;;23.25;13.65;;;;;;;1.09;68.41;101589.45;1718138;82;21597;-72
2021/10/20 03:18:04;;;;;;;21.02;14.03;;;;;;;1.11;68.58;101588.77;1715351;81;21160;-72
2021/10/20 03:20:33;;;;;;;23.50;15.00;;;;;;;1.15;68.80;101590.06;1721658;81;21518;-72
2021/10/20 03:23:00;;;;;;;22.77;14.13;;;;;;;1.31;68.92;101593.14;1718359;81;21161;-71
2021/10/20 03:25:26;;;;;;;24.70;15.15;;;;;;;1.44;69.00;101592.10;1719150;82;21028;-71
2021/10/20 03:27:53;;;;;;;23.40;13.00;;;;;;;1.57;69.02;101589.73;1721084;81;21007;-72
2021/10/20 03:30:21;;;;;;;24.52;14.65;;;;;;;1.70;68.94;101592.31;1715645;80;21159;-72
2021/10/20 03:32:48;;;;;;;23.52;15.28;;;;;;;1.76;68.94;101594.27;1719183;81;21050;-72
2021/10/20 03:35:15;;;;;;;21.52;13.35;;;;;;;1.91;68.87;101587.73;1736229;80;21652;-72
2021/10/20 03:37:42;;;;;;;21.37;13.62;;;;;;;2.00;68.82;101578.29;1736621;80;21082;-71
2021/10/20 03:40:09;;;;;;;20.72;13.13;;;;;;;2.13;68.61;101581.66;1735822;80;21023;-71
2021/10/20 03:42:38;;;;;;;23.12;14.28;;;;;;;2.24;68.47;101577.81;1733505;80;21139;-71
2021/10/20 03:45:06;;;;;;;23.38;13.78;;;;;;;2.32;68.31;101569.83;1735181;80;21110;-72
2021/10/20 03:47:32;;;;;;;22.67;13.75;;;;;;;2.41;68.17;101570.09;1739738;82;21608;-72
2021/10/20 03:49:59;;;;;;;21.07;13.48;;;;;;;2.51;68.06;101563.25;1732291;80;21067;-72
2021/10/20 03:52:25;;;;;;;21.90;13.28;;;;;;;2.59;68.05;101562.66;1741068;80;21292;-72
2021/10/20 03:54:53;;;;;;;27.62;14.45;;;;;;;2.71;67.98;101559.59;1738485;81;21141;-71
2021/10/20 03:57:19;;;;;;;18.25;12.50;;;;;;;2.82;67.75;101559.14;1743841;81;21550;-72
2021/10/20 03:59:46;;;;;;;19.15;12.63;;;;;;;2.88;67.70;101559.73;1734861;80;21024;-72
2021/10/20 04:02:13;;;;;;;19.02;12.88;;;;;;;2.92;67.72;101568.92;1741417;80;21074;-72
2021/10/20 04:04:40;;;;;;;21.75;12.88;;;;;;;2.94;67.80;101564.29;1727276;80;21051;-72
2021/10/20 04:07:06;;;;;;;23.20;13.68;;;;;;;2.91;67.79;101565.16;1737161;82;21115;-72
2021/10/20 04:09:33;;;;;;;22.00;13.13;;;;;;;2.91;67.81;101568.61;1727266;80;21122;-71
2021/10/20 04:12:00;;;;;;;21.82;13.10;;;;;;;2.95;67.80;101569.06;1736194;80;21067;-73
2021/10/20 04:14:26;;;;;;;19.62;11.90;;;;;;;3.00;67.75;101557.48;1738596;80;21565;-71
2021/10/20 04:16:54;;;;;;;20.08;12.85;;;;;;;3.07;67.71;101555.73;1730530;80;21100;-72
2021/10/20 04:19:20;;;;;;;21.33;13.05;;;;;;;3.12;67.79;101561.27;1741166;80;21107;-72
2021/10/20 04:21:47;;;;;;;22.30;13.18;;;;;;;3.26;67.73;101557.82;1730620;80;21042;-71
2021/10/20 04:24:14;;;;;;;19.82;12.80;;;;;;;3.35;67.63;101557.20;1730355;82;21557;-71
2021/10/20 04:26:41;;;;;;;23.55;13.85;;;;;;;3.44;67.57;101567.17;1729804;80;21079;-72
2021/10/20 04:29:07;;;;;;;20.17;12.65;;;;;;;3.55;67.43;101566.68;1729930;81;21061;-72
2021/10/20 04:31:34;;;;;;;20.70;12.65;;;;;;;3.61;67.46;101567.26;1742603;80;21628;-73
2021/10/20 04:34:01;;;;;;;20.97;12.30;;;;;;;3.65;67.55;101563.73;1731522;81;21117;-72
2021/10/20 04:36:27;;;;;;;21.68;12.68;;;;;;;3.76;67.45;101557.98;1736655;81;21110;-72
2021/10/20 04:38:54;;;;;;;22.17;13.13;;;;;;;3.79;67.41;101553.65;1732524;80;21027;-72
2021/10/20 04:41:21;;;;;;;23.92;13.78;;;;;;;3.78;67.45;101545.89;1734392;82;21681;-73
2021/10/20 04:43:48;;;;;;;20.90;13.45;;;;;;;3.70;67.59;101545.52;1729096;80;21167;-72
2021/10/20 04:46:14;;;;;;;19.42;13.08;;;;;;;3.67;67.65;101536.14;1732877;81;21107;-71
2021/10/20 04:48:41;;;;;;;22.32;13.58;;;;;;;3.64;67.78;101529.91;1730708;80;21525;-71
2021/10/20 04:51:08;;;;;;;23.57;12.90;;;;;;;3.65;67.89;101538.16;1728884;81;21059;-72
2021/10/20 04:53:35;;;;;;;21.60;12.68;;;;;;;3.65;68.09;101531.56;1739914;80;21050;-71
2021/10/20 04:56:05;;;;;;;21.60;12.73;;;;;;;3.74;68.25;101525.13;1737489;80;21969;-72
2021/10/20 04:58:31;;;;;;;19.52;11.60;;;;;;;3.86;68.33;101522.00;1709382;81;21074;-72
2021/10/20 05:00:58;;;;;;;21.65;12.85;;;;;;;3.99;68.33;101516.84;1732473;80;21081;-72
2021/10/20 05:03:24;;;;;;;20.23;13.22;;;;;;;4.11;68.31;101515.80;1740272;80;21050;-72
2021/10/20 05:05:51;;;;;;;18.92;12.23;;;;;;;4.19;68.28;101517.82;1736382;82;22045;-72
2021/10/20 05:08:17;;;;;;;18.92;11.83;;;;;;;4.28;68.28;101521.16;1738990;80;21171;-72
2021/10/20 05:10:46;;;;;;;18.62;11.53;;;;;;;4.38;68.28;101516.86;1731407;80;20956;-72
2021/10/20 05:13:14;;;;;;;21.68;13.40;;;;;;;4.44;68.20;101519.55;1736882;81;21074;-71
2021/10/20 05:15:42;;;;;;;18.32;12.93;;;;;;;4.51;68.19;101524.05;1741204;81;21035;-72
2021/10/20 05:18:14;;;;;;;18.75;12.03;;;;;;;4.68;67.99;101518.79;1742966;82;21542;-71
2021/10/20 05:20:39;;;;;;;22.00;13.50;;;;;;;4.75;67.85;101515.67;1731795;80;21844;-70
2021/10/20 05:23:06;;;;;;;17.60;11.48;;;;;;;4.92;67.60;101509.04;1731879;81;21012;-71
2021/10/20 05:25:33;;;;;;;18.27;11.12;;;;;;;5.01;67.45;101514.19;1722049;80;21133;-72
2021/10/20 05:28:00;;;;;;;19.40;12.55;;;;;;;5.10;67.18;101515.16;1731172;81;21027;-72
2021/10/20 05:30:26;;;;;;;23.22;13.65;;;;;;;5.08;67.14;101512.38;1740528;80;21047;-73
2021/10/20 05:32:53;;;;;;;18.95;11.28;;;;;;;5.14;67.05;101511.09;1725068;80;21609;-71
2021/10/20 05:35:20;;;;;;;19.25;11.00;;;;;;;5.27;66.88;101512.16;1729691;81;21089;-71
2021/10/20 05:37:48;;;;;;;16.73;10.68;;;;;;;5.39;66.64;101500.77;1735987;80;21022;-72
2021/10/20 05:40:14;;;;;;;14.75;9.83;;;;;;;5.46;66.54;101499.97;1734507;81;21079;-72
2021/10/20 05:42:41;;;;;;;14.43;9.90;;;;;;;5.65;66.27;101500.02;1742600;82;21041;-72
2021/10/20 05:45:09;;;;;;;15.00;9.68;;;;;;;5.80;65.96;101499.05;1739820;81;21087;-74
2021/10/20 05:47:35;;;;;;;15.50;9.75;;;;;;;5.89;65.79;101499.16;1719871;80;21620;-71
2021/10/20 05:50:04;;;;;;;17.98;10.25;;;;;;;6.04;65.51;101502.96;1738617;80;21535;-71
2021/10/20 05:52:32;;;;;;;17.40;10.35;;;;;;;6.21;65.21;101506.02;1740315;80;21070;-72
2021/10/20 05:54:59;;;;;;;14.78;9.18;;;;;;;6.28;64.95;101494.89;1738636;80;21071;-73
2021/10/20 05:57:27;;;;;;;15.60;10.25;;;;;;;6.40;64.65;101492.44;1735998;80;21140;-73
2021/10/20 05:59:54;;;;;;;16.52;9.38;;;;;;;6.54;64.36;101495.38;1735413;81;21075;-72
2021/10/20 06:02:21;;;;;;;16.80;9.93;;;;;;;6.66;64.13;101487.60;1712107;81;21606;-73
2021/10/20 06:04:47;;;;;;;14.23;9.03;;;;;;;6.74;63.86;101476.22;1736599;80;21066;-73
2021/10/20 06:07:15;;;;;;;15.10;9.53;;;;;;;6.83;63.65;101474.69;1729548;80;37282;-72
2021/10/20 06:09:42;;;;;;;13.38;9.98;;;;;;;6.94;63.49;101476.19;1725178;80;21883;-71
2021/10/20 06:12:10;;;;;;;16.90;10.38;;;;;;;7.06;63.55;101480.31;1726980;80;21062;-72
2021/10/20 06:14:39;;;;;;;14.85;9.50;;;;;;;7.30;63.60;101476.11;1735017;80;21369;-72
2021/10/20 06:17:06;;;;;;;16.20;10.48;;;;;;;7.54;63.51;101469.77;1733404;80;22507;-74
2021/10/20 06:19:33;;;;;;;15.53;10.03;;;;;;;7.83;63.07;101460.33;1739873;81;21164;-74
2021/10/20 06:22:00;;;;;;;15.98;9.60;;;;;;;8.05;62.64;101459.45;1739587;80;21091;-74
2021/10/20 06:24:28;;;;;;;16.30;10.25;;;;;;;8.20;62.39;101454.62;1734371;80;21081;-75
2021/10/20 06:26:55;;;;;;;15.50;10.08;;;;;;;8.40;62.17;101447.80;1738646;80;21062;-74
2021/10/20 06:29:25;;;;;;;15.58;10.20;;;;;;;8.59;61.67;101448.11;1740879;80;21050;-76
2021/10/20 06:31:51;;;;;;;15.25;10.32;;;;;;;8.81;61.33;101443.66;1728616;80;21019;-74
2021/10/20 06:34:18;;;;;;;14.58;9.95;;;;;;;9.01;60.80;101434.08;1730283;80;21783;-77
2021/10/20 06:36:44;;;;;;;12.80;8.83;;;;;;;9.18;59.99;101436.44;1734050;80;21026;-76
2021/10/20 06:39:10;;;;;;;15.00;9.38;;;;;;;9.33;59.48;101438.16;1733171;80;21035;-77
2021/10/20 06:41:37;;;;;;;13.65;8.43;;;;;;;9.52;58.71;101432.77;1730197;82;21034;-75
2021/10/20 06:44:04;;;;;;;12.63;8.30;;;;;;;9.74;57.73;101435.20;1734884;80;21022;-77
2021/10/20 06:46:31;;;;;;;12.70;8.23;;;;;;;9.93;56.72;101437.23;1732205;80;21479;-75
2021/10/20 06:48:58;;;;;;;11.45;7.70;;;;;;;10.06;55.25;101437.00;1734344;80;21082;-76
2021/10/20 06:51:24;;;;;;;13.80;8.55;;;;;;;10.23;53.90;101428.30;1736668;82;21062;-76
2021/10/20 06:53:50;;;;;;;14.20;8.98;;;;;;;10.32;53.02;101426.94;1734991;80;21007;-75
2021/10/20 06:56:17;;;;;;;12.78;7.45;;;;;;;10.50;52.38;101424.14;1736441;80;21035;-76
2021/10/20 06:58:45;;;;;;;13.15;8.70;;;;;;;10.59;51.79;101418.42;1731273;80;21552;-74
2021/10/20 07:01:12;;;;;;;12.45;8.45;;;;;;;10.72;51.14;101415.48;1735225;80;21526;-75
2021/10/20 07:03:40;;;;;;;12.35;8.35;;;;;;;10.83;50.91;101410.64;1735192;80;21137;-73
2021/10/20 07:06:09;;;;;;;13.50;8.50;;;;;;;10.93;50.30;101413.52;1739790;80;21000;-72
2021/10/20 07:08:35;;;;;;;12.35;7.58;;;;;;;11.11;49.80;101408.48;1736525;80;22208;-75
2021/10/20 07:11:03;;;;;;;13.58;7.80;;;;;;;11.21;49.23;101405.19;1729036;80;21074;-75
2021/10/20 07:13:30;;;;;;;11.73;7.33;;;;;;;11.36;48.56;101398.78;1722050;81;21038;-74
2021/10/20 07:15:58;;;;;;;11.63;7.00;;;;;;;11.45;48.11;101396.00;1707191;81;21038;-75
2021/10/20 07:18:27;;;;;;;10.50;6.45;;;;;;;11.56;47.78;101384.93;1708413;80;21011;-74
2021/10/20 07:20:54;;;;;;;9.43;6.45;;;;;;;11.66;47.25;101392.31;1713319;81;21059;-75
2021/10/20 07:23:20;;;;;;;9.93;6.53;;;;;;;11.79;47.15;101390.64;1714878;81;21320;-75
2021/10/20 07:25:47;;;;;;;10.72;6.60;;;;;;;11.91;46.78;101383.88;1715782;81;21047;-75
2021/10/20 07:28:14;;;;;;;13.05;6.62;;;;;;;12.05;45.79;101385.70;1711064;81;21083;-73
2021/10/20 07:30:41;;;;;;;9.90;6.55;;;;;;;12.15;45.35;101377.81;1738550;80;21084;-74
2021/10/20 07:33:08;;;;;;;11.05;7.10;;;;;;;12.18;45.22;101378.12;1728978;80;21030;-76
2021/10/20 07:35:35;;;;;;;10.82;6.72;;;;;;;12.22;44.98;101380.31;1740642;80;22165;-75
2021/10/20 07:38:02;;;;;;;10.13;7.08;;;;;;;12.23;44.65;101382.73;1745145;80;21648;-75
2021/10/20 07:40:28;;;;;;;11.88;6.92;;;;;;;12.24;44.41;101383.03;1739273;80;21138;-75
2021/10/20 07:42:55;;;;;;;11.85;7.15;;;;;;;12.22;44.57;101380.31;1745120;80;21083;-75
2021/10/20 07:45:23;;;;;;;14.47;7.92;;;;;;;12.26;44.75;101379.55;1721987;81;21026;-76
2021/10/20 07:47:52;;;;;;;10.68;7.30;;;;;;;12.39;44.67;101379.19;1741245;80;21048;-74
2021/10/20 07:50:20;;;;;;;13.18;8.10;;;;;;;12.44;44.89;101375.25;1732031;80;21095;-75
2021/10/20 07:52:50;;;;;;;11.63;7.70;;;;;;;12.56;44.42;101376.98;1731804;81;21094;-76
2021/10/20 07:55:21;;;;;;;11.78;7.67;;;;;;;12.70;44.21;101359.47;1737677;80;21150;-74
2021/10/20 07:57:48;;;;;;;12.50;8.20;;;;;;;12.78;44.08;101355.52;1736056;81;21628;-76
2021/10/20 08:00:15;;;;;;;13.05;8.40;;;;;;;12.82;44.41;101353.42;1729717;80;22049;-72
2021/10/20 08:02:42;;;;;;;14.60;8.93;;;;;;;12.90;44.02;101350.30;1739244;82;21049;-76
2021/10/20 08:05:14;;;;;;;12.07;8.17;;;;;;;13.05;43.79;101357.67;1719541;80;21690;-77
2021/10/20 08:07:46;;;;;;;12.70;8.80;;;;;;;13.19;43.81;101354.04;1743188;82;21157;-75
2021/10/20 08:10:16;;;;;;;11.90;7.67;;;;;;;13.34;43.62;101356.89;1734463;80;21654;-75
2021/10/20 08:12:43;;;;;;;15.00;8.97;;;;;;;13.50;43.48;101350.31;1729505;80;21322;-74
2021/10/20 08:15:14;;;;;;;12.30;7.57;;;;;;;13.61;43.56;101342.61;1735964;80;21752;-74
2021/10/20 08:17:41;;;;;;;13.53;8.67;;;;;;;13.75;43.47;101342.42;1737753;80;21387;-74
2021/10/20 08:20:10;;;;;;;13.73;8.23;;;;;;;13.87;43.23;101338.21;1718036;82;21314;-78
2021/10/20 08:22:37;;;;;;;13.03;8.73;;;;;;;13.95;42.95;101331.53;1745200;80;21279;-73
2021/10/20 08:25:06;;;;;;;15.63;8.87;;;;;;;13.94;43.24;101334.75;1746401;82;21325;-75
2021/10/20 08:27:32;;;;;;;13.17;8.80;;;;;;;14.00;43.12;101332.92;1734173;80;21283;-74
2021/10/20 08:29:59;;;;;;;13.17;8.70;;;;;;;14.07;43.34;101326.77;1702292;81;21337;-75
2021/10/20 08:32:26;;;;;;;13.47;8.77;;;;;;;14.11;43.30;101317.65;1720562;80;21342;-76
2021/10/20 08:34:53;;;;;;;12.80;8.70;;;;;;;14.14;43.58;101315.78;1739578;80;21269;-75
2021/10/20 08:37:19;;;;;;;12.57;8.47;;;;;;;14.18;43.67;101311.50;1738262;80;21308;-75
2021/10/20 08:39:46;;;;;;;14.00;8.67;;;;;;;14.21;43.81;101306.41;1742619;80;21270;-78
2021/10/20 08:42:13;;;;;;;12.23;8.67;;;;;;;14.24;43.94;101309.11;1746691;82;21262;-76
2021/10/20 08:44:40;;;;;;;12.83;8.83;;;;;;;14.27;44.33;101308.05;1742076;80;21112;-77
2021/10/20 08:47:08;;;;;;;13.40;9.03;;;;;;;14.35;44.51;101295.20;1735812;80;21338;-74
2021/10/20 08:49:38;;;;;;;12.27;8.77;;;;;;;14.40;44.68;101294.66;1729121;81;22164;-75
2021/10/20 08:52:06;;;;;;;13.10;8.67;;;;;;;14.48;44.96;101295.50;1735407;81;21236;-74
2021/10/20 08:54:34;;;;;;;11.87;9.47;;;;;;;14.58;45.48;101283.16;1735842;81;21949;-76
2021/10/20 08:57:00;;;;;;;15.23;9.33;;;;;;;14.69;45.91;101277.55;1699405;81;21826;-78
2021/10/20 08:59:27;;;;;;;14.10;9.60;;;;;;;14.82;46.40;101284.30;1742927;80;21357;-75
2021/10/20 09:01:54;;;;;;;13.37;9.03;;;;;;;14.91;46.62;101275.97;1746459;80;21266;-77
2021/10/20 09:04:22;;;;;;;14.33;9.93;;;;;;;15.05;46.69;101276.78;1708811;81;21832;-78
2021/10/20 09:06:50;;;;;;;13.43;9.93;;;;;;;15.11;46.80;101273.82;1721611;82;21420;-75
2021/10/20 09:09:18;;;;;;;14.07;10.10;;;;;;;15.14;46.98;101264.41;1697527;81;21713;-74
2021/10/20 09:11:45;;;;;;;15.13;10.67;;;;;;;15.19;46.99;101258.46;1723848;80;21381;-74
2021/10/20 09:14:14;;;;;;;14.17;10.60;;;;;;;15.17;47.14;101257.14;1701724;83;21885;-75
2021/10/20 09:16:44;;;;;;;16.80;11.40;;;;;;;15.25;47.22;101255.23;1736325;80;21262;-75
2021/10/20 09:19:20;;;;;;;16.07;12.07;;;;;;;15.31;47.29;101238.55;1712264;81;21375;-75
2021/10/20 09:21:54;;;;;;;19.80;12.50;;;;;;;15.39;47.12;101227.22;1735652;80;21293;-75
2021/10/20 09:24:29;;;;;;;15.53;10.80;;;;;;;15.48;46.98;101228.28;1714595;83;21354;-74
2021/10/20 09:26:59;;;;;;;14.50;11.03;;;;;;;15.55;46.94;101216.67;1734941;80;22010;-75
2021/10/20 09:29:30;;;;;;;16.33;11.50;;;;;;;15.63;46.90;101217.48;1704906;80;21482;-76
2021/10/20 09:31:56;;;;;;;15.33;11.07;;;;;;;15.71;46.84;101208.84;1739365;80;21237;-75
2021/10/20 09:34:36;;;;;;;16.03;11.83;;;;;;;15.79;46.71;101212.05;1731837;80;21294;-74
2021/10/20 09:37:06;;;;;;;14.97;10.43;;;;;;;15.83;46.71;101179.45;1733512;80;21363;-74
2021/10/20 09:39:35;;;;;;;16.53;11.93;;;;;;;15.89;46.65;101197.18;1728820;82;21379;-74
2021/10/20 09:42:12;;;;;;;13.90;11.43;;;;;;;15.88;46.56;101192.34;1730454;82;21320;-75
2021/10/20 09:44:50;;;;;;;15.43;11.60;;;;;;;15.88;46.87;101190.19;1709418;81;21407;-75
2021/10/20 09:47:17;;;;;;;17.57;12.93;;;;;;;16.02;46.34;101201.97;1747469;80;21247;-74
2021/10/20 09:49:54;;;;;;;16.40;11.70;;;;;;;16.11;46.32;101184.68;1745741;80;21377;-72
2021/10/20 09:52:24;;;;;;;18.13;12.43;;;;;;;16.11;46.32;101184.68;1732653;80;22087;-74
2021/10/20 09:54:52;;;;;;;15.47;11.73;;;;;;;16.21;46.33;101182.47;1744508;80;21516;-74
2021/10/20 09:57:19;;;;;;;17.90;12.27;;;;;;;16.37;46.54;101171.84;1748629;82;21506;-74
2021/10/20 09:59:49;;;;;;;17.30;11.70;;;;;;;16.37;46.54;101171.84;1716825;82;21523;-77
2021/10/20 10:02:18;;;;;;;15.97;12.17;;;;;;;16.45;46.44;101172.58;1716452;82;21938;-73
2021/10/20 10:04:44;;;;;;;18.03;11.80;;;;;;;16.52;46.39;101163.66;1748957;80;21607;-75
2021/10/20 10:07:11;;;;;;;17.10;12.63;;;;;;;16.68;46.38;101166.21;1745052;80;22235;-75
2021/10/20 10:09:37;;;;;;;19.10;12.93;;;;;;;16.77;46.11;101165.90;1744827;82;21437;-76
2021/10/20 10:12:16;;;;;;;16.93;13.07;;;;;;;16.88;46.21;101159.34;1736533;80;21703;-74
2021/10/20 10:14:47;;;;;;;16.50;11.77;;;;;;;16.88;46.21;101159.34;1719124;82;21780;-75
2021/10/20 10:17:16;;;;;;;17.97;12.03;;;;;;;16.96;45.84;101153.86;1740255;80;21641;-76
2021/10/20 10:19:44;;;;;;;17.13;12.40;;;;;;;17.03;45.68;101147.58;1723064;82;21773;-74
2021/10/20 10:22:28;;;;;;;18.20;12.87;;;;;;;17.03;45.68;101147.58;1714122;82;21571;-76
2021/10/20 10:25:06;;;;;;;18.90;13.47;;;;;;;17.00;45.80;101150.30;1724525;80;21708;-76
2021/10/20 10:27:32;;;;;;;18.83;13.17;;;;;;;16.98;45.77;101135.47;1747211;80;21591;-74
2021/10/20 10:30:06;;;;;;;18.20;12.67;;;;;;;17.01;45.87;101133.03;1713468;81;21728;-76
2021/10/20 10:32:37;;;;;;;18.83;11.87;;;;;;;17.06;45.78;101123.52;1716861;82;22142;-74
2021/10/20 10:35:08;;;;;;;;;;;;;;;17.14;46.12;101120.72;1750511;80;21719;-73
2021/10/20 10:37:36;;;;;;;18.33;13.63;;;;;;;17.23;45.89;101111.45;1742593;80;20137;-74
2021/10/20 10:40:21;;;;;;;18.13;12.20;;;;;;;17.28;45.54;101108.16;1735698;82;21769;-74
2021/10/20 10:42:49;;;;;;;19.53;12.23;;;;;;;17.36;45.58;101106.70;1703601;81;21835;-74
2021/10/20 10:45:23;;;;;;;18.53;13.27;;;;;;;17.44;45.46;101099.33;1741753;80;21709;-74
2021/10/20 10:48:06;;;;;;;18.63;13.17;;;;;;;17.54;45.34;101098.40;1699687;83;22322;-77
2021/10/20 10:50:48;;;;;;;17.50;11.93;;;;;;;17.53;45.07;101093.52;1739302;80;21763;-74
2021/10/20 10:53:29;;;;;;;18.48;12.70;;;;;;;17.57;45.30;101093.73;1748284;80;25845;-74
2021/10/20 10:56:14;;;;;;;15.60;12.10;;;;;;;17.64;45.13;101090.70;1737687;80;21498;-75
2021/10/20 10:59:04;;;;;;;17.37;12.30;;;;;;;17.67;45.01;101088.74;1740152;80;21136;-74
2021/10/20 11:01:45;;;;;;;19.57;13.58;;;;;;;17.58;45.06;101085.91;1710160;82;21054;-74
2021/10/20 11:04:26;;;;;;;17.07;12.67;;;;;;;17.42;45.35;101090.70;1743485;82;21118;-74
2021/10/20 11:06:56;;;;;;;17.10;12.45;;;;;;;17.31;45.73;101079.23;1739832;82;22201;-74
2021/10/20 11:09:31;;;;;;;18.20;12.70;;;;;;;17.28;45.82;101079.02;1735164;80;21919;-75
2021/10/20 11:11:56;;;;;;;17.23;12.33;;;;;;;17.25;45.89;101060.69;1703346;82;21784;-75
2021/10/20 11:14:25;;;;;;;16.30;11.63;;;;;;;17.25;45.97;101070.94;1727561;80;21744;-75
2021/10/20 11:16:57;;;;;;;19.23;13.97;;;;;;;17.25;46.09;101068.79;1699045;82;21748;-74
2021/10/20 11:19:24;;;;;;;20.55;13.32;;;;;;;17.29;46.23;101053.61;1709542;80;21742;-76
2021/10/20 11:21:51;;;;;;;20.70;13.20;;;;;;;17.37;46.12;101054.30;1720510;82;21136;-73